Élőkép

Információk

Albatrosz Repülő Egyesület
8000 Székesfehérvár,
Radványi utca 6.

Adószám:
19092908-2-07

Bankszámla szám:
Budapest Bank
10102952-01361819-00000001

Telefon: +36 30 9598-897

Telephey: Börgönd repülőtér

Börgöndi repülõtér

LHBP METAR/TAF

[source: ADDS]
METAR
TAF LHBP 231700Z 2318/2418 09004KT 8000 BKN033 BECMG 2321/2324 3000 BR BKN015 TEMPO 2400/2407 0800 FG BKN005 BECMG 2409/2412 7000 NSW BKN025 TAF
TAF LHBP 231700Z 2318/2418 09004KT 8000 BKN033 BECMG 2321/2324 3000 BR BKN015 TEMPO 2400/2407 0800 FG BKN005 BECMG 2409/2412 7000 NSW BKN025 =
SR / SS: 06:03 / 15:05 UTC (Börgönd 2014-11-23)
Hungarian Chinese (Simplified) Croatian Czech English Finnish French German Hebrew Italian Japanese Polish Portuguese Romanian Russian Serbian Slovak Slovenian Spanish

Belépés tagoknak